sensor_id;sensor_type;location;lat;lon;timestamp;P1;durP1;ratioP1;P2;durP2;ratioP2
27163;SDS011;14685;50.618;7.024;2023-04-03T00:00:38;4.07;;;1.98;;
27163;SDS011;14685;50.618;7.024;2023-04-03T00:03:05;8.52;;;1.92;;
27163;SDS011;14685;50.618;7.024;2023-04-03T00:05:32;4.63;;;1.55;;
27163;SDS011;14685;50.618;7.024;2023-04-03T00:08:01;3.20;;;1.90;;
27163;SDS011;14685;50.618;7.024;2023-04-03T00:10:28;6.47;;;1.80;;
27163;SDS011;14685;50.618;7.024;2023-04-03T00:12:55;2.50;;;1.45;;
27163;SDS011;14685;50.618;7.024;2023-04-03T00:15:22;2.85;;;1.63;;
27163;SDS011;14685;50.618;7.024;2023-04-03T00:17:49;3.92;;;1.70;;
27163;SDS011;14685;50.618;7.024;2023-04-03T00:20:16;4.35;;;1.80;;
27163;SDS011;14685;50.618;7.024;2023-04-03T00:22:43;3.55;;;1.83;;
27163;SDS011;14685;50.618;7.024;2023-04-03T00:25:10;4.10;;;1.80;;
27163;SDS011;14685;50.618;7.024;2023-04-03T00:27:37;4.07;;;1.75;;
27163;SDS011;14685;50.618;7.024;2023-04-03T00:30:06;5.32;;;1.98;;
27163;SDS011;14685;50.618;7.024;2023-04-03T00:32:35;3.15;;;1.60;;
27163;SDS011;14685;50.618;7.024;2023-04-03T00:35:02;3.10;;;1.77;;
27163;SDS011;14685;50.618;7.024;2023-04-03T00:37:29;4.15;;;1.63;;
27163;SDS011;14685;50.618;7.024;2023-04-03T00:39:56;4.72;;;1.77;;
27163;SDS011;14685;50.618;7.024;2023-04-03T00:42:24;2.50;;;1.48;;
27163;SDS011;14685;50.618;7.024;2023-04-03T00:45:41;5.15;;;1.98;;
27163;SDS011;14685;50.618;7.024;2023-04-03T00:47:50;5.43;;;2.13;;
27163;SDS011;14685;50.618;7.024;2023-04-03T00:50:17;4.15;;;1.83;;
27163;SDS011;14685;50.618;7.024;2023-04-03T00:52:44;3.55;;;1.80;;
27163;SDS011;14685;50.618;7.024;2023-04-03T00:55:15;3.47;;;1.67;;
27163;SDS011;14685;50.618;7.024;2023-04-03T00:57:43;3.95;;;1.50;;
27163;SDS011;14685;50.618;7.024;2023-04-03T01:00:12;3.58;;;1.73;;
27163;SDS011;14685;50.618;7.024;2023-04-03T01:02:43;2.53;;;1.75;;
27163;SDS011;14685;50.618;7.024;2023-04-03T01:05:10;4.53;;;2.17;;
27163;SDS011;14685;50.618;7.024;2023-04-03T01:07:37;3.85;;;1.70;;
27163;SDS011;14685;50.618;7.024;2023-04-03T01:10:07;4.80;;;1.92;;
27163;SDS011;14685;50.618;7.024;2023-04-03T01:12:36;2.88;;;1.52;;
27163;SDS011;14685;50.618;7.024;2023-04-03T01:15:08;2.15;;;1.60;;
27163;SDS011;14685;50.618;7.024;2023-04-03T01:17:48;3.67;;;1.70;;
27163;SDS011;14685;50.618;7.024;2023-04-03T01:25:37;3.55;;;1.73;;
27163;SDS011;14685;50.618;7.024;2023-04-03T01:28:19;2.92;;;1.90;;
27163;SDS011;14685;50.618;7.024;2023-04-03T01:33:52;3.42;;;2.40;;
27163;SDS011;14685;50.618;7.024;2023-04-03T01:36:24;3.75;;;1.83;;
27163;SDS011;14685;50.618;7.024;2023-04-03T01:38:52;5.23;;;1.90;;
27163;SDS011;14685;50.618;7.024;2023-04-03T01:41:20;4.55;;;1.90;;
27163;SDS011;14685;50.618;7.024;2023-04-03T01:43:48;2.08;;;1.67;;
27163;SDS011;14685;50.618;7.024;2023-04-03T01:46:16;4.65;;;2.00;;
27163;SDS011;14685;50.618;7.024;2023-04-03T01:48:44;5.45;;;2.40;;
27163;SDS011;14685;50.618;7.024;2023-04-03T01:51:11;2.78;;;1.58;;
27163;SDS011;14685;50.618;7.024;2023-04-03T01:53:38;5.18;;;1.58;;
27163;SDS011;14685;50.618;7.024;2023-04-03T01:56:05;3.05;;;1.60;;
27163;SDS011;14685;50.618;7.024;2023-04-03T01:58:32;6.30;;;1.60;;
27163;SDS011;14685;50.618;7.024;2023-04-03T02:00:59;6.03;;;1.98;;
27163;SDS011;14685;50.618;7.024;2023-04-03T02:03:26;5.10;;;1.95;;
27163;SDS011;14685;50.618;7.024;2023-04-03T02:05:54;2.80;;;1.75;;
27163;SDS011;14685;50.618;7.024;2023-04-03T02:08:22;4.68;;;1.85;;
27163;SDS011;14685;50.618;7.024;2023-04-03T02:11:07;3.47;;;1.70;;
27163;SDS011;14685;50.618;7.024;2023-04-03T02:13:34;4.30;;;1.95;;
27163;SDS011;14685;50.618;7.024;2023-04-03T02:16:11;3.65;;;1.70;;
27163;SDS011;14685;50.618;7.024;2023-04-03T02:18:39;3.65;;;2.00;;
27163;SDS011;14685;50.618;7.024;2023-04-03T02:21:06;4.18;;;1.83;;
27163;SDS011;14685;50.618;7.024;2023-04-03T02:23:33;2.47;;;1.73;;
27163;SDS011;14685;50.618;7.024;2023-04-03T02:26:03;2.60;;;1.67;;
27163;SDS011;14685;50.618;7.024;2023-04-03T02:28:35;3.92;;;1.55;;
27163;SDS011;14685;50.618;7.024;2023-04-03T02:31:03;6.15;;;1.85;;
27163;SDS011;14685;50.618;7.024;2023-04-03T02:33:31;2.55;;;1.80;;
27163;SDS011;14685;50.618;7.024;2023-04-03T02:35:58;4.57;;;1.98;;
27163;SDS011;14685;50.618;7.024;2023-04-03T02:38:25;2.95;;;1.60;;
27163;SDS011;14685;50.618;7.024;2023-04-03T02:40:53;4.20;;;1.73;;
27163;SDS011;14685;50.618;7.024;2023-04-03T02:43:20;1.65;;;1.30;;
27163;SDS011;14685;50.618;7.024;2023-04-03T02:45:47;3.58;;;1.80;;
27163;SDS011;14685;50.618;7.024;2023-04-03T02:48:15;3.65;;;1.77;;
27163;SDS011;14685;50.618;7.024;2023-04-03T02:50:43;3.75;;;2.03;;
27163;SDS011;14685;50.618;7.024;2023-04-03T02:53:10;2.70;;;1.70;;
27163;SDS011;14685;50.618;7.024;2023-04-03T02:55:37;4.60;;;1.40;;
27163;SDS011;14685;50.618;7.024;2023-04-03T02:58:04;4.25;;;1.90;;
27163;SDS011;14685;50.618;7.024;2023-04-03T03:00:34;2.80;;;1.58;;
27163;SDS011;14685;50.618;7.024;2023-04-03T03:03:02;5.03;;;1.58;;
27163;SDS011;14685;50.618;7.024;2023-04-03T03:05:29;3.53;;;1.85;;
27163;SDS011;14685;50.618;7.024;2023-04-03T03:07:56;3.95;;;1.80;;
27163;SDS011;14685;50.618;7.024;2023-04-03T03:10:23;5.30;;;2.20;;
27163;SDS011;14685;50.618;7.024;2023-04-03T03:12:51;3.15;;;1.58;;
27163;SDS011;14685;50.618;7.024;2023-04-03T03:15:17;4.65;;;1.75;;
27163;SDS011;14685;50.618;7.024;2023-04-03T03:17:45;3.65;;;1.88;;
27163;SDS011;14685;50.618;7.024;2023-04-03T03:20:12;2.95;;;2.08;;
27163;SDS011;14685;50.618;7.024;2023-04-03T03:22:43;3.22;;;1.95;;
27163;SDS011;14685;50.618;7.024;2023-04-03T03:25:09;4.60;;;1.92;;
27163;SDS011;14685;50.618;7.024;2023-04-03T03:27:36;3.22;;;1.90;;
27163;SDS011;14685;50.618;7.024;2023-04-03T03:30:03;4.82;;;1.60;;
27163;SDS011;14685;50.618;7.024;2023-04-03T03:32:31;4.97;;;1.85;;
27163;SDS011;14685;50.618;7.024;2023-04-03T03:34:58;2.55;;;1.65;;
27163;SDS011;14685;50.618;7.024;2023-04-03T03:37:25;3.47;;;1.80;;
27163;SDS011;14685;50.618;7.024;2023-04-03T03:39:53;2.53;;;1.50;;
27163;SDS011;14685;50.618;7.024;2023-04-03T03:42:20;4.07;;;1.90;;
27163;SDS011;14685;50.618;7.024;2023-04-03T03:44:46;3.47;;;1.55;;
27163;SDS011;14685;50.618;7.024;2023-04-03T03:47:13;4.18;;;1.55;;
27163;SDS011;14685;50.618;7.024;2023-04-03T03:49:40;7.25;;;2.05;;
27163;SDS011;14685;50.618;7.024;2023-04-03T03:52:07;4.93;;;1.75;;
27163;SDS011;14685;50.618;7.024;2023-04-03T03:54:36;2.90;;;1.67;;
27163;SDS011;14685;50.618;7.024;2023-04-03T03:57:04;2.60;;;2.10;;
27163;SDS011;14685;50.618;7.024;2023-04-03T03:59:31;6.90;;;2.00;;
27163;SDS011;14685;50.618;7.024;2023-04-03T04:01:58;5.30;;;2.13;;
27163;SDS011;14685;50.618;7.024;2023-04-03T04:04:25;3.95;;;1.80;;
27163;SDS011;14685;50.618;7.024;2023-04-03T04:06:52;2.40;;;1.60;;
27163;SDS011;14685;50.618;7.024;2023-04-03T04:09:19;6.60;;;2.42;;
27163;SDS011;14685;50.618;7.024;2023-04-03T04:11:45;4.00;;;2.05;;
27163;SDS011;14685;50.618;7.024;2023-04-03T04:14:12;4.70;;;1.60;;
27163;SDS011;14685;50.618;7.024;2023-04-03T04:16:40;1.75;;;1.42;;
27163;SDS011;14685;50.618;7.024;2023-04-03T04:19:07;2.60;;;1.52;;
27163;SDS011;14685;50.618;7.024;2023-04-03T04:21:34;3.55;;;1.48;;
27163;SDS011;14685;50.618;7.024;2023-04-03T04:24:01;4.13;;;1.70;;
27163;SDS011;14685;50.618;7.024;2023-04-03T04:26:29;2.60;;;2.00;;
27163;SDS011;14685;50.618;7.024;2023-04-03T04:28:56;3.83;;;1.90;;
27163;SDS011;14685;50.618;7.024;2023-04-03T04:31:23;6.88;;;2.25;;
27163;SDS011;14685;50.618;7.024;2023-04-03T04:33:52;3.58;;;1.85;;
27163;SDS011;14685;50.618;7.024;2023-04-03T04:36:20;1.90;;;1.63;;
27163;SDS011;14685;50.618;7.024;2023-04-03T04:38:48;5.40;;;2.08;;
27163;SDS011;14685;50.618;7.024;2023-04-03T04:41:21;3.90;;;1.63;;
27163;SDS011;14685;50.618;7.024;2023-04-03T04:43:48;4.97;;;2.35;;
27163;SDS011;14685;50.618;7.024;2023-04-03T04:46:16;3.85;;;2.00;;
27163;SDS011;14685;50.618;7.024;2023-04-03T04:48:43;7.13;;;2.60;;
27163;SDS011;14685;50.618;7.024;2023-04-03T04:51:11;2.97;;;1.65;;
27163;SDS011;14685;50.618;7.024;2023-04-03T04:53:38;2.35;;;1.63;;
27163;SDS011;14685;50.618;7.024;2023-04-03T04:56:06;5.47;;;2.67;;
27163;SDS011;14685;50.618;7.024;2023-04-03T04:58:34;2.08;;;1.88;;
27163;SDS011;14685;50.618;7.024;2023-04-03T05:01:05;2.85;;;1.85;;
27163;SDS011;14685;50.618;7.024;2023-04-03T05:03:34;5.03;;;1.92;;
27163;SDS011;14685;50.618;7.024;2023-04-03T05:06:01;3.90;;;2.35;;
27163;SDS011;14685;50.618;7.024;2023-04-03T05:08:29;6.95;;;1.88;;
27163;SDS011;14685;50.618;7.024;2023-04-03T05:10:57;4.18;;;2.00;;
27163;SDS011;14685;50.618;7.024;2023-04-03T05:13:24;5.72;;;2.28;;
27163;SDS011;14685;50.618;7.024;2023-04-03T05:15:51;3.45;;;1.73;;
27163;SDS011;14685;50.618;7.024;2023-04-03T05:18:17;6.38;;;2.42;;
27163;SDS011;14685;50.618;7.024;2023-04-03T05:20:44;4.25;;;2.33;;
27163;SDS011;14685;50.618;7.024;2023-04-03T05:23:11;4.05;;;2.15;;
27163;SDS011;14685;50.618;7.024;2023-04-03T05:25:38;7.40;;;4.05;;
27163;SDS011;14685;50.618;7.024;2023-04-03T05:28:05;7.40;;;5.22;;
27163;SDS011;14685;50.618;7.024;2023-04-03T05:33:33;14.95;;;8.90;;
27163;SDS011;14685;50.618;7.024;2023-04-03T05:36:04;13.73;;;7.53;;
27163;SDS011;14685;50.618;7.024;2023-04-03T05:38:32;17.02;;;8.02;;
27163;SDS011;14685;50.618;7.024;2023-04-03T05:40:59;13.70;;;7.93;;
27163;SDS011;14685;50.618;7.024;2023-04-03T05:43:26;10.93;;;6.25;;
27163;SDS011;14685;50.618;7.024;2023-04-03T05:45:53;9.13;;;5.20;;
27163;SDS011;14685;50.618;7.024;2023-04-03T05:48:20;7.88;;;3.67;;
27163;SDS011;14685;50.618;7.024;2023-04-03T05:50:47;5.60;;;4.07;;
27163;SDS011;14685;50.618;7.024;2023-04-03T05:53:15;9.90;;;4.50;;
27163;SDS011;14685;50.618;7.024;2023-04-03T05:55:47;13.35;;;6.00;;
27163;SDS011;14685;50.618;7.024;2023-04-03T05:58:14;10.13;;;6.05;;
27163;SDS011;14685;50.618;7.024;2023-04-03T06:00:41;18.58;;;9.15;;
27163;SDS011;14685;50.618;7.024;2023-04-03T06:03:08;11.18;;;6.50;;
27163;SDS011;14685;50.618;7.024;2023-04-03T06:05:35;17.20;;;6.88;;
27163;SDS011;14685;50.618;7.024;2023-04-03T06:08:03;8.25;;;3.88;;
27163;SDS011;14685;50.618;7.024;2023-04-03T06:10:30;5.63;;;2.13;;
27163;SDS011;14685;50.618;7.024;2023-04-03T06:12:57;4.85;;;2.40;;
27163;SDS011;14685;50.618;7.024;2023-04-03T06:15:24;6.57;;;2.47;;
27163;SDS011;14685;50.618;7.024;2023-04-03T06:17:51;4.75;;;1.77;;
27163;SDS011;14685;50.618;7.024;2023-04-03T06:20:19;2.05;;;1.85;;
27163;SDS011;14685;50.618;7.024;2023-04-03T06:22:46;6.95;;;1.90;;
27163;SDS011;14685;50.618;7.024;2023-04-03T06:25:13;6.47;;;2.00;;
27163;SDS011;14685;50.618;7.024;2023-04-03T06:27:40;5.13;;;2.17;;
27163;SDS011;14685;50.618;7.024;2023-04-03T06:30:07;5.47;;;1.85;;
27163;SDS011;14685;50.618;7.024;2023-04-03T06:32:36;7.97;;;2.35;;
27163;SDS011;14685;50.618;7.024;2023-04-03T06:35:03;4.47;;;2.05;;
27163;SDS011;14685;50.618;7.024;2023-04-03T06:37:31;4.13;;;1.92;;
27163;SDS011;14685;50.618;7.024;2023-04-03T06:39:58;4.20;;;1.63;;
27163;SDS011;14685;50.618;7.024;2023-04-03T06:42:26;3.70;;;1.75;;
27163;SDS011;14685;50.618;7.024;2023-04-03T06:44:54;4.25;;;1.70;;
27163;SDS011;14685;50.618;7.024;2023-04-03T06:47:21;3.15;;;1.42;;
27163;SDS011;14685;50.618;7.024;2023-04-03T06:49:47;5.63;;;2.03;;
27163;SDS011;14685;50.618;7.024;2023-04-03T06:52:14;5.70;;;2.00;;
27163;SDS011;14685;50.618;7.024;2023-04-03T06:54:42;6.15;;;1.85;;
27163;SDS011;14685;50.618;7.024;2023-04-03T06:57:09;4.32;;;2.05;;
27163;SDS011;14685;50.618;7.024;2023-04-03T06:59:36;7.50;;;2.03;;
27163;SDS011;14685;50.618;7.024;2023-04-03T07:02:03;8.20;;;1.92;;
27163;SDS011;14685;50.618;7.024;2023-04-03T07:04:30;4.03;;;1.60;;
27163;SDS011;14685;50.618;7.024;2023-04-03T07:06:57;4.47;;;1.75;;
27163;SDS011;14685;50.618;7.024;2023-04-03T07:09:24;3.75;;;1.77;;
27163;SDS011;14685;50.618;7.024;2023-04-03T07:11:52;4.32;;;1.77;;
27163;SDS011;14685;50.618;7.024;2023-04-03T07:14:18;4.28;;;1.55;;
27163;SDS011;14685;50.618;7.024;2023-04-03T07:16:45;7.10;;;1.67;;
27163;SDS011;14685;50.618;7.024;2023-04-03T07:19:12;6.60;;;1.98;;
27163;SDS011;14685;50.618;7.024;2023-04-03T07:21:39;6.18;;;1.95;;
27163;SDS011;14685;50.618;7.024;2023-04-03T07:24:08;4.43;;;1.70;;
27163;SDS011;14685;50.618;7.024;2023-04-03T07:26:41;7.55;;;1.80;;
27163;SDS011;14685;50.618;7.024;2023-04-03T07:29:10;4.90;;;1.65;;
27163;SDS011;14685;50.618;7.024;2023-04-03T07:31:40;4.05;;;1.83;;
27163;SDS011;14685;50.618;7.024;2023-04-03T07:34:07;2.53;;;1.48;;
27163;SDS011;14685;50.618;7.024;2023-04-03T07:36:34;4.97;;;1.80;;
27163;SDS011;14685;50.618;7.024;2023-04-03T07:39:03;5.57;;;1.80;;
27163;SDS011;14685;50.618;7.024;2023-04-03T07:41:30;4.43;;;1.40;;
27163;SDS011;14685;50.618;7.024;2023-04-03T07:43:57;5.93;;;1.70;;
27163;SDS011;14685;50.618;7.024;2023-04-03T07:46:24;3.85;;;1.75;;
27163;SDS011;14685;50.618;7.024;2023-04-03T07:48:52;6.40;;;1.88;;
27163;SDS011;14685;50.618;7.024;2023-04-03T07:51:20;5.65;;;2.08;;
27163;SDS011;14685;50.618;7.024;2023-04-03T07:53:47;6.75;;;1.88;;
27163;SDS011;14685;50.618;7.024;2023-04-03T07:56:16;4.88;;;1.70;;
27163;SDS011;14685;50.618;7.024;2023-04-03T07:58:43;4.07;;;1.70;;
27163;SDS011;14685;50.618;7.024;2023-04-03T08:01:10;5.47;;;1.75;;
27163;SDS011;14685;50.618;7.024;2023-04-03T08:03:37;5.47;;;1.83;;
27163;SDS011;14685;50.618;7.024;2023-04-03T08:06:06;5.07;;;1.92;;
27163;SDS011;14685;50.618;7.024;2023-04-03T08:08:40;5.32;;;1.58;;
27163;SDS011;14685;50.618;7.024;2023-04-03T08:11:07;5.65;;;1.73;;
27163;SDS011;14685;50.618;7.024;2023-04-03T08:13:34;5.47;;;1.75;;
27163;SDS011;14685;50.618;7.024;2023-04-03T08:16:12;7.25;;;1.77;;
27163;SDS011;14685;50.618;7.024;2023-04-03T08:18:39;5.15;;;1.73;;
27163;SDS011;14685;50.618;7.024;2023-04-03T08:21:07;3.45;;;1.75;;
27163;SDS011;14685;50.618;7.024;2023-04-03T08:25:23;2.28;;;1.42;;
27163;SDS011;14685;50.618;7.024;2023-04-03T08:27:51;5.25;;;2.08;;
27163;SDS011;14685;50.618;7.024;2023-04-03T08:30:18;2.88;;;1.70;;
27163;SDS011;14685;50.618;7.024;2023-04-03T08:32:45;5.43;;;2.00;;
27163;SDS011;14685;50.618;7.024;2023-04-03T08:35:12;4.18;;;1.80;;
27163;SDS011;14685;50.618;7.024;2023-04-03T08:37:39;5.20;;;1.95;;
27163;SDS011;14685;50.618;7.024;2023-04-03T08:40:07;6.70;;;1.70;;
27163;SDS011;14685;50.618;7.024;2023-04-03T08:48:05;4.45;;;1.83;;
27163;SDS011;14685;50.618;7.024;2023-04-03T08:50:36;3.92;;;1.73;;
27163;SDS011;14685;50.618;7.024;2023-04-03T08:53:12;4.70;;;1.88;;
27163;SDS011;14685;50.618;7.024;2023-04-03T08:55:45;5.00;;;1.92;;
27163;SDS011;14685;50.618;7.024;2023-04-03T08:58:21;5.88;;;1.58;;
27163;SDS011;14685;50.618;7.024;2023-04-03T09:03:19;6.13;;;2.15;;
27163;SDS011;14685;50.618;7.024;2023-04-03T09:05:55;4.75;;;2.08;;
27163;SDS011;14685;50.618;7.024;2023-04-03T09:08:34;5.13;;;1.83;;
27163;SDS011;14685;50.618;7.024;2023-04-03T09:11:15;3.22;;;1.75;;
27163;SDS011;14685;50.618;7.024;2023-04-03T09:14:07;6.05;;;1.70;;
27163;SDS011;14685;50.618;7.024;2023-04-03T09:22:46;5.82;;;1.80;;
27163;SDS011;14685;50.618;7.024;2023-04-03T09:25:34;7.28;;;2.28;;
27163;SDS011;14685;50.618;7.024;2023-04-03T09:28:04;5.50;;;1.95;;
27163;SDS011;14685;50.618;7.024;2023-04-03T09:30:36;8.20;;;2.30;;
27163;SDS011;14685;50.618;7.024;2023-04-03T09:33:04;4.38;;;2.10;;
27163;SDS011;14685;50.618;7.024;2023-04-03T09:35:36;7.18;;;2.10;;
27163;SDS011;14685;50.618;7.024;2023-04-03T09:38:15;3.35;;;1.75;;
27163;SDS011;14685;50.618;7.024;2023-04-03T09:40:45;5.22;;;1.88;;
27163;SDS011;14685;50.618;7.024;2023-04-03T09:45:45;5.68;;;1.90;;
27163;SDS011;14685;50.618;7.024;2023-04-03T09:53:35;4.13;;;1.73;;
27163;SDS011;14685;50.618;7.024;2023-04-03T09:58:44;3.22;;;1.40;;
27163;SDS011;14685;50.618;7.024;2023-04-03T10:04:13;2.78;;;1.40;;
27163;SDS011;14685;50.618;7.024;2023-04-03T10:06:43;2.70;;;1.45;;
27163;SDS011;14685;50.618;7.024;2023-04-03T10:12:04;4.00;;;1.33;;
27163;SDS011;14685;50.618;7.024;2023-04-03T10:15:11;3.65;;;1.77;;
27163;SDS011;14685;50.618;7.024;2023-04-03T10:23:14;4.10;;;1.50;;
27163;SDS011;14685;50.618;7.024;2023-04-03T10:28:35;3.88;;;1.67;;
27163;SDS011;14685;50.618;7.024;2023-04-03T10:36:29;7.80;;;2.08;;
27163;SDS011;14685;50.618;7.024;2023-04-03T10:47:21;4.30;;;1.80;;
27163;SDS011;14685;50.618;7.024;2023-04-03T10:50:11;4.32;;;1.73;;
27163;SDS011;14685;50.618;7.024;2023-04-03T10:58:17;5.05;;;1.95;;
27163;SDS011;14685;50.618;7.024;2023-04-03T11:01:16;4.30;;;1.70;;
27163;SDS011;14685;50.618;7.024;2023-04-03T11:03:49;3.30;;;1.77;;
27163;SDS011;14685;50.618;7.024;2023-04-03T11:06:20;5.47;;;1.67;;
27163;SDS011;14685;50.618;7.024;2023-04-03T11:11:24;3.28;;;1.50;;
27163;SDS011;14685;50.618;7.024;2023-04-03T11:14:03;3.67;;;1.58;;
27163;SDS011;14685;50.618;7.024;2023-04-03T11:16:59;5.93;;;1.80;;
27163;SDS011;14685;50.618;7.024;2023-04-03T11:22:04;3.08;;;1.25;;
27163;SDS011;14685;50.618;7.024;2023-04-03T11:24:36;2.85;;;1.25;;
27163;SDS011;14685;50.618;7.024;2023-04-03T11:27:08;3.05;;;1.55;;
27163;SDS011;14685;50.618;7.024;2023-04-03T11:29:43;5.13;;;1.80;;
27163;SDS011;14685;50.618;7.024;2023-04-03T11:32:26;5.05;;;1.80;;
27163;SDS011;14685;50.618;7.024;2023-04-03T11:35:15;2.65;;;1.17;;
27163;SDS011;14685;50.618;7.024;2023-04-03T11:37:46;3.22;;;1.40;;
27163;SDS011;14685;50.618;7.024;2023-04-03T11:40:28;6.20;;;1.85;;
27163;SDS011;14685;50.618;7.024;2023-04-03T11:45:54;4.45;;;1.45;;
27163;SDS011;14685;50.618;7.024;2023-04-03T11:53:39;4.18;;;1.60;;
27163;SDS011;14685;50.618;7.024;2023-04-03T12:01:48;3.13;;;1.50;;
27163;SDS011;14685;50.618;7.024;2023-04-03T12:04:19;4.47;;;1.45;;
27163;SDS011;14685;50.618;7.024;2023-04-03T12:06:59;5.00;;;1.90;;
27163;SDS011;14685;50.618;7.024;2023-04-03T12:09:35;2.72;;;1.48;;
27163;SDS011;14685;50.618;7.024;2023-04-03T12:12:30;1.63;;;1.23;;
27163;SDS011;14685;50.618;7.024;2023-04-03T12:15:12;3.38;;;1.65;;
27163;SDS011;14685;50.618;7.024;2023-04-03T12:17:45;2.20;;;1.40;;
27163;SDS011;14685;50.618;7.024;2023-04-03T12:26:01;3.83;;;1.23;;
27163;SDS011;14685;50.618;7.024;2023-04-03T12:28:50;2.15;;;1.30;;
27163;SDS011;14685;50.618;7.024;2023-04-03T12:31:19;2.30;;;1.30;;
27163;SDS011;14685;50.618;7.024;2023-04-03T12:41:58;2.17;;;1.35;;
27163;SDS011;14685;50.618;7.024;2023-04-03T12:44:48;1.75;;;1.30;;
27163;SDS011;14685;50.618;7.024;2023-04-03T12:47:23;4.20;;;1.33;;
27163;SDS011;14685;50.618;7.024;2023-04-03T12:49:50;3.85;;;1.40;;
27163;SDS011;14685;50.618;7.024;2023-04-03T12:52:23;2.40;;;1.10;;
27163;SDS011;14685;50.618;7.024;2023-04-03T12:54:58;3.22;;;1.48;;
27163;SDS011;14685;50.618;7.024;2023-04-03T12:57:30;3.25;;;1.40;;
27163;SDS011;14685;50.618;7.024;2023-04-03T12:59:59;3.28;;;1.58;;
27163;SDS011;14685;50.618;7.024;2023-04-03T13:02:44;3.20;;;1.65;;
27163;SDS011;14685;50.618;7.024;2023-04-03T13:05:14;2.85;;;1.30;;
27163;SDS011;14685;50.618;7.024;2023-04-03T13:07:48;4.40;;;1.30;;
27163;SDS011;14685;50.618;7.024;2023-04-03T13:10:19;2.45;;;1.33;;
27163;SDS011;14685;50.618;7.024;2023-04-03T13:12:50;5.97;;;2.03;;
27163;SDS011;14685;50.618;7.024;2023-04-03T13:15:24;5.28;;;1.35;;
27163;SDS011;14685;50.618;7.024;2023-04-03T13:17:56;3.78;;;1.13;;
27163;SDS011;14685;50.618;7.024;2023-04-03T13:20:27;3.63;;;1.50;;
27163;SDS011;14685;50.618;7.024;2023-04-03T13:23:08;3.63;;;1.20;;
27163;SDS011;14685;50.618;7.024;2023-04-03T13:25:41;3.72;;;1.65;;
27163;SDS011;14685;50.618;7.024;2023-04-03T13:28:10;1.95;;;1.42;;
27163;SDS011;14685;50.618;7.024;2023-04-03T13:30:41;3.92;;;1.95;;
27163;SDS011;14685;50.618;7.024;2023-04-03T13:33:28;2.83;;;1.38;;
27163;SDS011;14685;50.618;7.024;2023-04-03T13:36:03;3.20;;;1.40;;
27163;SDS011;14685;50.618;7.024;2023-04-03T13:38:34;4.32;;;1.65;;
27163;SDS011;14685;50.618;7.024;2023-04-03T13:41:05;3.38;;;1.85;;
27163;SDS011;14685;50.618;7.024;2023-04-03T13:43:49;6.60;;;1.63;;
27163;SDS011;14685;50.618;7.024;2023-04-03T13:48:54;3.40;;;1.65;;
27163;SDS011;14685;50.618;7.024;2023-04-03T13:51:24;3.90;;;1.60;;
27163;SDS011;14685;50.618;7.024;2023-04-03T13:53:56;2.60;;;1.13;;
27163;SDS011;14685;50.618;7.024;2023-04-03T14:01:42;5.22;;;1.67;;
27163;SDS011;14685;50.618;7.024;2023-04-03T14:04:27;2.47;;;1.60;;
27163;SDS011;14685;50.618;7.024;2023-04-03T14:06:59;2.78;;;1.55;;
27163;SDS011;14685;50.618;7.024;2023-04-03T14:09:27;6.10;;;1.60;;
27163;SDS011;14685;50.618;7.024;2023-04-03T14:11:57;5.13;;;1.77;;
27163;SDS011;14685;50.618;7.024;2023-04-03T14:14:32;2.67;;;1.63;;
27163;SDS011;14685;50.618;7.024;2023-04-03T14:17:13;2.90;;;1.50;;
27163;SDS011;14685;50.618;7.024;2023-04-03T14:19:50;3.60;;;1.85;;
27163;SDS011;14685;50.618;7.024;2023-04-03T14:22:24;3.25;;;1.55;;
27163;SDS011;14685;50.618;7.024;2023-04-03T14:24:57;3.13;;;1.58;;
27163;SDS011;14685;50.618;7.024;2023-04-03T14:27:27;3.75;;;1.70;;
27163;SDS011;14685;50.618;7.024;2023-04-03T14:29:57;2.25;;;1.35;;
27163;SDS011;14685;50.618;7.024;2023-04-03T14:32:26;2.35;;;1.30;;
27163;SDS011;14685;50.618;7.024;2023-04-03T14:34:54;4.32;;;1.60;;
27163;SDS011;14685;50.618;7.024;2023-04-03T14:37:22;5.03;;;1.38;;
27163;SDS011;14685;50.618;7.024;2023-04-03T14:39:51;2.60;;;1.40;;
27163;SDS011;14685;50.618;7.024;2023-04-03T14:42:21;6.00;;;1.50;;
27163;SDS011;14685;50.618;7.024;2023-04-03T14:44:50;3.03;;;1.63;;
27163;SDS011;14685;50.618;7.024;2023-04-03T14:47:21;7.38;;;1.50;;
27163;SDS011;14685;50.618;7.024;2023-04-03T14:50:06;3.00;;;1.73;;
27163;SDS011;14685;50.618;7.024;2023-04-03T14:52:35;4.22;;;1.60;;
27163;SDS011;14685;50.618;7.024;2023-04-03T14:55:04;2.67;;;1.20;;
27163;SDS011;14685;50.618;7.024;2023-04-03T14:57:32;3.75;;;1.60;;
27163;SDS011;14685;50.618;7.024;2023-04-03T15:00:01;5.45;;;2.33;;
27163;SDS011;14685;50.618;7.024;2023-04-03T15:02:32;2.42;;;1.73;;
27163;SDS011;14685;50.618;7.024;2023-04-03T15:05:02;3.58;;;1.30;;
27163;SDS011;14685;50.618;7.024;2023-04-03T15:07:36;2.25;;;1.50;;
27163;SDS011;14685;50.618;7.024;2023-04-03T15:10:14;4.60;;;1.55;;
27163;SDS011;14685;50.618;7.024;2023-04-03T15:12:42;5.65;;;1.70;;
27163;SDS011;14685;50.618;7.024;2023-04-03T15:15:10;3.80;;;1.55;;
27163;SDS011;14685;50.618;7.024;2023-04-03T15:17:38;2.15;;;1.48;;
27163;SDS011;14685;50.618;7.024;2023-04-03T15:20:14;3.35;;;1.63;;
27163;SDS011;14685;50.618;7.024;2023-04-03T15:22:43;4.07;;;2.03;;
27163;SDS011;14685;50.618;7.024;2023-04-03T15:25:12;2.17;;;1.55;;
27163;SDS011;14685;50.618;7.024;2023-04-03T15:27:39;1.98;;;1.50;;
27163;SDS011;14685;50.618;7.024;2023-04-03T15:30:10;2.47;;;1.40;;
27163;SDS011;14685;50.618;7.024;2023-04-03T15:32:41;3.45;;;1.73;;
27163;SDS011;14685;50.618;7.024;2023-04-03T15:35:08;3.65;;;1.38;;
27163;SDS011;14685;50.618;7.024;2023-04-03T15:37:35;3.85;;;1.48;;
27163;SDS011;14685;50.618;7.024;2023-04-03T15:40:03;3.72;;;1.77;;
27163;SDS011;14685;50.618;7.024;2023-04-03T15:42:32;3.88;;;1.90;;
27163;SDS011;14685;50.618;7.024;2023-04-03T15:44:59;4.28;;;1.45;;
27163;SDS011;14685;50.618;7.024;2023-04-03T15:47:26;3.25;;;1.30;;
27163;SDS011;14685;50.618;7.024;2023-04-03T15:49:54;3.72;;;1.48;;
27163;SDS011;14685;50.618;7.024;2023-04-03T15:52:21;3.63;;;1.63;;
27163;SDS011;14685;50.618;7.024;2023-04-03T15:54:49;4.78;;;1.58;;
27163;SDS011;14685;50.618;7.024;2023-04-03T15:57:16;3.53;;;1.55;;
27163;SDS011;14685;50.618;7.024;2023-04-03T15:59:43;3.40;;;1.65;;
27163;SDS011;14685;50.618;7.024;2023-04-03T16:02:11;3.83;;;1.85;;
27163;SDS011;14685;50.618;7.024;2023-04-03T16:04:40;3.38;;;1.73;;
27163;SDS011;14685;50.618;7.024;2023-04-03T16:07:07;1.92;;;1.20;;
27163;SDS011;14685;50.618;7.024;2023-04-03T16:09:34;3.65;;;1.48;;
27163;SDS011;14685;50.618;7.024;2023-04-03T16:12:02;4.47;;;1.50;;
27163;SDS011;14685;50.618;7.024;2023-04-03T16:14:29;5.78;;;1.60;;
27163;SDS011;14685;50.618;7.024;2023-04-03T16:16:57;4.35;;;1.50;;
27163;SDS011;14685;50.618;7.024;2023-04-03T16:19:28;3.03;;;1.40;;
27163;SDS011;14685;50.618;7.024;2023-04-03T16:21:56;4.13;;;1.42;;
27163;SDS011;14685;50.618;7.024;2023-04-03T16:24:24;3.13;;;1.42;;
27163;SDS011;14685;50.618;7.024;2023-04-03T16:26:52;5.25;;;1.60;;
27163;SDS011;14685;50.618;7.024;2023-04-03T16:29:19;2.78;;;1.45;;
27163;SDS011;14685;50.618;7.024;2023-04-03T16:31:46;3.67;;;1.10;;
27163;SDS011;14685;50.618;7.024;2023-04-03T16:34:13;1.50;;;1.27;;
27163;SDS011;14685;50.618;7.024;2023-04-03T16:36:42;3.42;;;1.70;;
27163;SDS011;14685;50.618;7.024;2023-04-03T16:39:09;4.10;;;1.38;;
27163;SDS011;14685;50.618;7.024;2023-04-03T16:41:37;2.88;;;1.48;;
27163;SDS011;14685;50.618;7.024;2023-04-03T16:44:06;2.63;;;1.40;;
27163;SDS011;14685;50.618;7.024;2023-04-03T16:46:34;5.72;;;1.48;;
27163;SDS011;14685;50.618;7.024;2023-04-03T16:49:05;4.70;;;1.40;;
27163;SDS011;14685;50.618;7.024;2023-04-03T16:51:33;3.72;;;1.58;;
27163;SDS011;14685;50.618;7.024;2023-04-03T16:54:00;1.95;;;1.35;;
27163;SDS011;14685;50.618;7.024;2023-04-03T16:56:27;2.95;;;1.50;;